Terminal Aerodrome Forecast
Issued by NWS

Home | Current Version | Previous Version | Text Only | Print | Product List | Glossary On
Versions: 1 2 3 4 5 6 7 8 9 10 11 12 13 14 15 16 17 18 19 20 21 22 23 24 25 26 27 28
000
FTUS43 KLSX 190300 AAC
TAFSUS
TAF AMD
KSUS 190313Z 1903/1924 04004KT P6SM OVC025
     FM190600 VRB03KT 3SM BR OVC015
     FM190800 VRB03KT 3SM BR BKN008 OVC015
     FM191000 00000KT 1SM BR OVC003
     FM191700 VRB03KT 5SM HZ OVC010=

USA.gov is the U.S. government's official web portal to all federal, state and local government web resources and services.